Time;durP1;ratioP1;P1;durP2;ratioP2;P2;SDS_P1;SDS_P2;PMS_P1;PMS_P2;Temp;Humidity;BMP_temperature;BMP_pressure;BME280_temperature;BME280_humidity;BME280_pressure;Samples;Min_cycle;Max_cycle;Signal;HPM_P1;HPM_P2
2023/10/15 00:00:47;;;;;;;;;;;;;;;11.25;61.57;100764.53;4218857;28;20022;-71
2023/10/15 00:02:49;;;;;;;;;;;;;;;11.27;61.28;100767.06;4218511;28;19924;-71
2023/10/15 00:04:52;;;;;;;;;;;;;;;11.24;61.33;100771.00;4219636;28;20358;-71
2023/10/15 00:06:54;;;;;;;;;;;;;;;11.26;61.61;100758.13;4217759;28;20030;-71
2023/10/15 00:08:56;;;;;;;;;;;;;;;11.23;61.22;100763.91;4219132;28;20022;-72
2023/10/15 00:10:59;;;;;;;;;;;;;;;11.18;61.38;100761.72;4219846;28;20050;-70
2023/10/15 00:13:01;;;;;;;;;;;;;;;11.16;61.30;100763.78;4221122;28;20051;-70
2023/10/15 00:15:07;;;;;;;;;;;;;;;11.15;61.10;100762.09;4223489;28;20019;-71
2023/10/15 00:17:09;;;;;;;;;;;;;;;11.18;61.24;100780.66;4223062;28;19951;-70
2023/10/15 00:19:12;;;;;;;;;;;;;;;11.08;61.39;100766.56;4223260;28;20470;-70
2023/10/15 00:21:15;;;;;;;;;;;;;;;11.10;61.25;100764.50;4223244;28;20018;-70
2023/10/15 00:23:18;;;;;;;;;;;;;;;11.14;61.27;100764.97;4222813;28;20334;-71
2023/10/15 00:25:19;;;;;;;;;;;;;;;11.08;61.66;100769.25;4223234;28;20018;-71
2023/10/15 00:27:21;;;;;;;;;;;;;;;11.13;61.70;100771.41;4222717;28;20019;-72
2023/10/15 00:29:24;;;;;;;;;;;;;;;11.10;61.17;100763.69;4220432;28;20027;-71
2023/10/15 00:31:28;;;;;;;;;;;;;;;11.04;61.69;100772.50;4221846;28;20046;-71
2023/10/15 00:33:30;;;;;;;;;;;;;;;11.02;61.62;100775.38;4222222;28;20022;-71
2023/10/15 00:35:34;;;;;;;;;;;;;;;11.07;61.73;100766.72;4221600;28;19932;-71
2023/10/15 00:37:46;;;;;;;;;;;;;;;11.07;61.50;100794.59;4221161;28;20010;-71
2023/10/15 00:39:49;;;;;;;;;;;;;;;11.14;61.45;100773.09;4222146;28;19931;-70
2023/10/15 00:41:53;;;;;;;;;;;;;;;11.17;61.30;100772.72;4220057;28;20031;-71
2023/10/15 00:43:58;;;;;;;;;;;;;;;11.12;61.19;100783.25;4222949;28;20054;-71
2023/10/15 00:46:01;;;;;;;;;;;;;;;11.06;60.83;100782.09;4223817;28;20027;-70
2023/10/15 00:48:07;;;;;;;;;;;;;;;11.08;61.38;100777.38;4223229;28;19924;-72
2023/10/15 00:50:09;;;;;;;;;;;;;;;11.11;61.31;100778.84;4221540;28;20026;-73
2023/10/15 00:52:11;;;;;;;;;;;;;;;11.08;61.00;100774.66;4221311;28;20015;-72
2023/10/15 00:54:16;;;;;;;;;;;;;;;11.06;61.36;100773.97;4221219;28;20067;-71
2023/10/15 00:56:19;;;;;;;;;;;;;;;11.04;61.49;100773.31;4221629;28;20018;-72
2023/10/15 00:58:31;;;;;;;;;;;;;;;11.01;61.41;100779.09;4237612;27;20015;-71
2023/10/15 01:00:51;;;;;;;;;;;;;;;10.96;61.57;100776.91;4223549;28;19928;-71
2023/10/15 01:02:52;;;;;;;;;;;;;;;10.99;61.59;100779.28;4222579;28;20026;-70
2023/10/15 01:04:58;;;;;;;;;;;;;;;11.07;61.57;100780.25;4223427;28;19924;-70
2023/10/15 01:07:00;;;;;;;;;;;;;;;11.08;61.03;100784.63;4204222;28;20023;-71
2023/10/15 01:09:08;;;;;;;;;;;;;;;10.99;60.97;100790.09;4223124;28;20015;-71
2023/10/15 01:11:15;;;;;;;;;;;;;;;11.03;60.82;100778.91;4220281;28;20022;-72
2023/10/15 01:13:17;;;;;;;;;;;;;;;10.99;60.89;100783.84;4221570;28;20022;-69
2023/10/15 01:15:19;;;;;;;;;;;;;;;10.95;60.78;100787.91;4221183;28;20015;-71
2023/10/15 01:17:23;;;;;;;;;;;;;;;10.95;60.63;100790.63;4222716;28;20023;-71
2023/10/15 01:19:32;;;;;;;;;;;;;;;10.98;60.79;100790.25;4222028;28;20509;-71
2023/10/15 01:21:42;;;;;;;;;;;;;;;10.93;60.86;100784.56;4220958;28;19975;-71
2023/10/15 01:24:00;;;;;;;;;;;;;;;10.90;60.89;100784.91;4237097;27;20454;-71
2023/10/15 01:26:13;;;;;;;;;;;;;;;10.92;60.79;100780.16;4221600;28;20014;-71
2023/10/15 01:28:22;;;;;;;;;;;;;;;10.93;60.80;100785.38;4223059;28;19924;-71
2023/10/15 01:30:25;;;;;;;;;;;;;;;10.93;60.87;100793.50;4187413;28;19975;-71
2023/10/15 01:32:38;;;;;;;;;;;;;;;10.90;60.40;100793.00;4221681;28;20419;-72
2023/10/15 01:34:44;;;;;;;;;;;;;;;10.94;60.52;100791.63;4236871;27;19931;-71
2023/10/15 01:36:47;;;;;;;;;;;;;;;10.88;60.44;100790.50;4227741;28;20437;-71
2023/10/15 01:38:54;;;;;;;;;;;;;;;10.87;60.63;100802.31;4221212;28;20035;-72
2023/10/15 01:40:57;;;;;;;;;;;;;;;10.82;60.18;100794.72;4235247;27;20023;-71
2023/10/15 01:43:06;;;;;;;;;;;;;;;10.81;60.50;100803.88;4237262;27;19964;-71
2023/10/15 01:45:16;;;;;;;;;;;;;;;10.87;60.63;100798.78;4221543;28;20027;-71
2023/10/15 01:47:18;;;;;;;;;;;;;;;10.77;60.12;100797.13;4218661;28;20006;-71
2023/10/15 01:49:31;;;;;;;;;;;;;;;10.74;60.81;100786.69;4218827;28;20015;-72
2023/10/15 01:51:39;;;;;;;;;;;;;;;10.71;60.96;100800.53;4221706;28;20044;-70
2023/10/15 01:53:41;;;;;;;;;;;;;;;10.71;60.88;100797.84;4220130;28;20489;-70
2023/10/15 01:55:52;;;;;;;;;;;;;;;10.68;60.92;100800.91;4221151;28;20018;-71
2023/10/15 01:57:54;;;;;;;;;;;;;;;10.69;61.17;100796.31;4236984;27;20011;-70
2023/10/15 02:00:05;;;;;;;;;;;;;;;10.68;61.26;100800.06;4235127;27;19931;-71
2023/10/15 02:02:17;;;;;;;;;;;;;;;10.66;60.87;100800.22;4221357;28;20020;-71
2023/10/15 02:04:21;;;;;;;;;;;;;;;10.63;61.48;100801.41;4222034;28;19924;-72
2023/10/15 02:06:23;;;;;;;;;;;;;;;10.59;61.44;100801.94;4222079;28;20007;-71
2023/10/15 02:08:25;;;;;;;;;;;;;;;10.62;61.55;100807.00;4218871;28;20137;-71
2023/10/15 02:10:32;;;;;;;;;;;;;;;10.62;61.04;100794.31;4220953;28;20022;-70
2023/10/15 02:12:35;;;;;;;;;;;;;;;10.60;61.14;100796.38;4221781;28;20346;-71
2023/10/15 02:14:41;;;;;;;;;;;;;;;10.58;61.44;100798.41;4218881;28;19999;-70
2023/10/15 02:16:49;;;;;;;;;;;;;;;10.56;61.05;100797.72;4221555;28;20022;-70
2023/10/15 02:18:51;;;;;;;;;;;;;;;10.53;61.49;100792.72;4221220;28;20014;-70
2023/10/15 02:21:01;;;;;;;;;;;;;;;10.52;61.23;100791.00;4222705;28;20014;-72
2023/10/15 02:23:06;;;;;;;;;;;;;;;10.52;61.60;100790.19;4222497;28;20014;-73
2023/10/15 02:25:12;;;;;;;;;;;;;;;10.59;61.36;100800.06;4221806;28;19963;-71
2023/10/15 02:27:17;;;;;;;;;;;;;;;10.60;61.45;100790.97;4204496;28;19928;-70
2023/10/15 02:29:34;;;;;;;;;;;;;;;10.52;61.15;100791.00;4220300;28;20022;-71
2023/10/15 02:31:41;;;;;;;;;;;;;;;10.57;61.48;100801.28;4220251;28;20007;-72
2023/10/15 02:33:44;;;;;;;;;;;;;;;10.54;61.43;100793.53;4219573;28;20010;-71
2023/10/15 02:35:47;;;;;;;;;;;;;;;10.51;61.50;100783.91;4221306;28;20046;-70
2023/10/15 02:37:49;;;;;;;;;;;;;;;10.46;61.25;100791.72;4220421;28;20043;-74
2023/10/15 02:39:51;;;;;;;;;;;;;;;10.50;61.54;100794.88;4218300;28;20031;-71
2023/10/15 02:41:54;;;;;;;;;;;;;;;10.49;61.70;100798.63;4220996;28;20027;-71
2023/10/15 02:43:56;;;;;;;;;;;;;;;10.48;61.32;100794.22;4221180;28;19956;-70
2023/10/15 02:46:00;;;;;;;;;;;;;;;10.50;61.70;100797.59;4220078;28;20370;-71
2023/10/15 02:48:09;;;;;;;;;;;;;;;10.49;61.67;100795.94;4203133;28;20008;-71
2023/10/15 02:50:16;;;;;;;;;;;;;;;10.44;61.36;100799.97;4202654;28;20011;-71
2023/10/15 02:52:19;;;;;;;;;;;;;;;10.41;61.17;100786.84;4218370;28;20030;-72
2023/10/15 02:54:27;;;;;;;;;;;;;;;10.37;61.43;100790.06;4220917;28;20079;-72
2023/10/15 02:56:29;;;;;;;;;;;;;;;10.38;61.32;100797.16;4221025;28;20027;-70
2023/10/15 02:58:31;;;;;;;;;;;;;;;10.35;61.24;100797.50;4220484;28;20547;-71
2023/10/15 03:00:33;;;;;;;;;;;;;;;10.34;61.92;100793.94;4217720;28;20023;-71
2023/10/15 03:02:42;;;;;;;;;;;;;;;10.39;61.75;100802.38;4234959;27;20839;-71
2023/10/15 03:04:49;;;;;;;;;;;;;;;10.43;61.57;100806.38;4221237;28;20027;-70
2023/10/15 03:06:57;;;;;;;;;;;;;;;10.45;61.64;100817.00;4218549;28;19934;-71
2023/10/15 03:08:59;;;;;;;;;;;;;;;10.39;61.61;100810.47;4218848;28;20482;-71
2023/10/15 03:11:11;;;;;;;;;;;;;;;10.44;61.72;100809.94;4219802;28;20024;-71
2023/10/15 03:13:14;;;;;;;;;;;;;;;10.45;61.71;100812.47;4218152;28;20023;-71
2023/10/15 03:15:17;;;;;;;;;;;;;;;10.43;61.44;100806.38;4219101;28;20454;-73
2023/10/15 03:17:25;;;;;;;;;;;;;;;10.44;61.65;100820.75;4220826;28;20085;-70
2023/10/15 03:19:27;;;;;;;;;;;;;;;10.42;61.34;100804.72;4215717;28;20026;-70
2023/10/15 03:21:30;;;;;;;;;;;;;;;10.40;61.70;100809.44;4217181;28;20019;-73
2023/10/15 03:23:32;;;;;;;;;;;;;;;10.38;61.53;100814.19;4219488;28;20010;-72
2023/10/15 03:25:34;;;;;;;;;;;;;;;10.37;61.86;100808.94;4220831;28;20385;-71
2023/10/15 03:27:38;;;;;;;;;;;;;;;10.34;61.35;100810.13;4220795;28;19928;-70
2023/10/15 03:29:42;;;;;;;;;;;;;;;10.33;61.93;100821.09;4218862;28;20026;-72
2023/10/15 03:31:46;;;;;;;;;;;;;;;10.28;61.48;100814.34;4218692;28;21167;-70
2023/10/15 03:34:12;;;;;;;;;;;;;;;10.29;62.13;100813.31;4220018;28;20372;-70
2023/10/15 03:36:17;;;;;;;;;;;;;;;10.21;62.20;100817.91;4219647;28;20023;-72
2023/10/15 03:38:23;;;;;;;;;;;;;;;10.18;62.43;100812.88;4219013;28;20023;-71
2023/10/15 03:40:31;;;;;;;;;;;;;;;10.18;62.22;100823.66;4219353;28;20008;-72
2023/10/15 03:42:39;;;;;;;;;;;;;;;10.19;62.59;100819.97;4217307;28;20018;-72
2023/10/15 03:44:44;;;;;;;;;;;;;;;10.18;62.22;100813.69;4219743;28;20027;-72
2023/10/15 03:46:47;;;;;;;;;;;;;;;10.15;62.17;100814.03;4220614;28;20027;-71
2023/10/15 03:48:53;;;;;;;;;;;;;;;10.16;62.58;100810.34;4217993;28;19938;-72
2023/10/15 03:50:55;;;;;;;;;;;;;;;10.16;62.46;100817.59;4218621;28;20046;-70
2023/10/15 03:52:57;;;;;;;;;;;;;;;10.15;62.14;100815.91;4234395;27;20034;-71
2023/10/15 03:54:59;;;;;;;;;;;;;;;10.14;62.39;100822.31;4220023;28;20374;-72
2023/10/15 03:57:01;;;;;;;;;;;;;;;10.13;62.31;100818.78;4219916;28;20030;-70
2023/10/15 03:59:03;;;;;;;;;;;;;;;10.11;62.24;100820.81;4218082;28;20054;-71
2023/10/15 04:01:15;;;;;;;;;;;;;;;10.08;62.57;100818.47;4218685;28;20470;-73
2023/10/15 04:03:23;;;;;;;;;;;;;;;10.08;62.51;100811.19;4219146;28;20018;-70
2023/10/15 04:05:28;;;;;;;;;;;;;;;10.06;62.45;100810.53;4219619;28;20347;-71
2023/10/15 04:07:31;;;;;;;;;;;;;;;10.08;62.28;100815.75;4219744;28;20098;-70
2023/10/15 04:09:34;;;;;;;;;;;;;;;10.04;62.63;100807.16;4219251;28;19932;-72
2023/10/15 04:11:42;;;;;;;;;;;;;;;10.03;62.78;100810.88;4219153;28;20016;-71
2023/10/15 04:13:46;;;;;;;;;;;;;;;10.00;62.43;100803.13;4218277;28;20014;-74
2023/10/15 04:15:48;;;;;;;;;;;;;;;9.98;62.47;100809.69;4220022;28;20023;-72
2023/10/15 04:17:51;;;;;;;;;;;;;;;9.96;62.79;100800.94;4219500;28;20015;-73
2023/10/15 04:19:53;;;;;;;;;;;;;;;9.95;62.99;100805.47;4218666;28;20023;-71
2023/10/15 04:21:59;;;;;;;;;;;;;;;9.94;62.68;100809.22;4218769;28;20023;-70
2023/10/15 04:24:00;;;;;;;;;;;;;;;9.94;62.87;100811.91;4219515;28;20018;-71
2023/10/15 04:26:11;;;;;;;;;;;;;;;9.94;62.77;100811.91;4219660;28;20007;-71
2023/10/15 04:28:14;;;;;;;;;;;;;;;9.91;62.80;100801.44;4219084;28;20044;-71
2023/10/15 04:30:17;;;;;;;;;;;;;;;9.87;62.84;100805.50;4218227;28;19950;-72
2023/10/15 04:32:28;;;;;;;;;;;;;;;9.84;63.18;100797.75;4219176;28;20050;-70
2023/10/15 04:34:32;;;;;;;;;;;;;;;9.86;62.97;100801.13;4219247;28;20442;-72
2023/10/15 04:36:40;;;;;;;;;;;;;;;9.83;63.19;100798.78;4219449;28;20852;-70
2023/10/15 04:38:42;;;;;;;;;;;;;;;9.80;63.35;100801.81;4219238;28;20027;-72
2023/10/15 04:40:59;;;;;;;;;;;;;;;9.74;63.32;100806.84;4218643;28;20019;-71
2023/10/15 04:43:01;;;;;;;;;;;;;;;9.69;63.63;100801.13;4219454;28;20027;-70
2023/10/15 04:45:20;;;;;;;;;;;;;;;9.73;63.51;100799.78;4219745;28;20014;-71
2023/10/15 04:47:28;;;;;;;;;;;;;;;9.65;63.54;100805.16;4219744;28;20042;-71
2023/10/15 04:49:31;;;;;;;;;;;;;;;9.68;63.66;100799.44;4218926;28;20031;-71
2023/10/15 04:51:42;;;;;;;;;;;;;;;9.63;63.85;100800.97;4218745;28;20343;-71
2023/10/15 04:53:48;;;;;;;;;;;;;;;9.55;64.16;100802.66;4219204;28;20010;-71
2023/10/15 04:55:50;;;;;;;;;;;;;;;9.55;64.18;100801.81;4217660;28;20015;-71
2023/10/15 04:57:52;;;;;;;;;;;;;;;9.55;64.18;100799.13;4218775;28;20249;-71
2023/10/15 04:59:54;;;;;;;;;;;;;;;9.43;64.36;100801.31;4220910;28;20461;-70
2023/10/15 05:01:56;;;;;;;;;;;;;;;9.44;64.44;100797.59;4220878;28;20035;-71
2023/10/15 05:04:00;;;;;;;;;;;;;;;9.41;64.78;100797.09;4222211;28;20051;-70
2023/10/15 05:06:02;;;;;;;;;;;;;;;9.36;65.04;100794.91;4221900;28;20019;-72
2023/10/15 05:08:10;;;;;;;;;;;;;;;9.34;65.00;100791.53;4222903;28;20019;-71
2023/10/15 05:10:11;;;;;;;;;;;;;;;9.37;65.21;100800.13;4221869;28;20015;-70
2023/10/15 05:12:14;;;;;;;;;;;;;;;9.34;65.31;100796.91;4222199;28;19950;-72
2023/10/15 05:14:17;;;;;;;;;;;;;;;9.30;65.09;100801.81;4222321;28;20023;-71
2023/10/15 05:16:19;;;;;;;;;;;;;;;9.27;65.51;100796.75;4222855;28;20018;-71
2023/10/15 05:18:21;;;;;;;;;;;;;;;9.30;65.13;100807.19;4222163;28;20024;-70
2023/10/15 05:20:23;;;;;;;;;;;;;;;9.26;65.50;100805.00;4221733;28;20019;-72
2023/10/15 05:22:26;;;;;;;;;;;;;;;9.22;65.22;100800.97;4221828;28;20019;-71
2023/10/15 05:24:30;;;;;;;;;;;;;;;9.30;65.34;100809.88;4221990;28;20023;-71
2023/10/15 05:26:32;;;;;;;;;;;;;;;9.21;65.32;100805.50;4221768;28;20010;-71
2023/10/15 05:28:34;;;;;;;;;;;;;;;9.17;65.38;100809.56;4221590;28;20019;-71
2023/10/15 05:30:37;;;;;;;;;;;;;;;9.16;65.51;100813.25;4220228;28;20030;-71
2023/10/15 05:32:39;;;;;;;;;;;;;;;9.20;65.26;100817.31;4221219;28;19969;-70
2023/10/15 05:34:42;;;;;;;;;;;;;;;9.20;65.46;100822.69;4221247;28;20025;-72
2023/10/15 05:36:45;;;;;;;;;;;;;;;9.14;65.70;100832.28;4220273;28;20022;-70
2023/10/15 05:38:46;;;;;;;;;;;;;;;9.11;65.62;100829.06;4220020;28;20438;-71
2023/10/15 05:40:49;;;;;;;;;;;;;;;9.10;65.75;100833.59;4220563;28;19954;-73
2023/10/15 05:42:51;;;;;;;;;;;;;;;9.14;65.53;100826.88;4221210;28;20405;-70
2023/10/15 05:44:53;;;;;;;;;;;;;;;9.14;65.79;100824.19;4222847;28;20010;-70
2023/10/15 05:46:55;;;;;;;;;;;;;;;9.13;65.50;100822.50;4222078;28;20829;-71
2023/10/15 05:48:59;;;;;;;;;;;;;;;9.13;65.54;100821.66;4220872;28;20024;-71
2023/10/15 05:51:01;;;;;;;;;;;;;;;9.08;65.72;100830.25;4220403;28;20006;-71
2023/10/15 05:53:06;;;;;;;;;;;;;;;9.10;65.79;100832.78;4220115;28;19930;-71
2023/10/15 05:55:11;;;;;;;;;;;;;;;9.07;65.82;100838.50;4218649;28;20022;-70
2023/10/15 05:57:13;;;;;;;;;;;;;;;9.08;66.06;100832.09;4216564;28;20449;-70
2023/10/15 05:59:15;;;;;;;;;;;;;;;8.99;66.08;100831.22;4218865;28;19924;-71
2023/10/15 06:01:16;;;;;;;;;;;;;;;8.96;66.26;100832.38;4219397;28;20019;-72
2023/10/15 06:03:19;;;;;;;;;;;;;;;8.97;66.48;100823.31;4221598;28;20374;-72
2023/10/15 06:05:21;;;;;;;;;;;;;;;8.90;66.68;100824.13;4219925;28;20027;-71
2023/10/15 06:07:23;;;;;;;;;;;;;;;8.83;67.08;100827.47;4218962;28;20656;-69
2023/10/15 06:09:27;;;;;;;;;;;;;;;8.84;66.87;100842.63;4220067;28;20442;-71
2023/10/15 06:11:29;;;;;;;;;;;;;;;8.89;66.86;100835.94;4219705;28;20031;-71
2023/10/15 06:13:31;;;;;;;;;;;;;;;8.81;67.00;100837.56;4220801;28;20022;-72
2023/10/15 06:15:33;;;;;;;;;;;;;;;8.80;67.18;100835.88;4220716;28;20433;-72
2023/10/15 06:17:35;;;;;;;;;;;;;;;8.78;67.23;100829.81;4221175;28;20489;-73
2023/10/15 06:19:36;;;;;;;;;;;;;;;8.78;67.41;100835.22;4219364;28;20346;-72
2023/10/15 06:21:38;;;;;;;;;;;;;;;8.78;67.53;100826.28;4220708;28;19985;-72
2023/10/15 06:23:40;;;;;;;;;;;;;;;8.78;67.75;100843.28;4220715;28;20007;-72
2023/10/15 06:25:43;;;;;;;;;;;;;;;8.79;67.71;100844.13;4221643;28;20051;-72
2023/10/15 06:27:44;;;;;;;;;;;;;;;8.79;67.81;100838.72;4220185;28;20369;-72
2023/10/15 06:29:46;;;;;;;;;;;;;;;8.78;68.05;100840.59;4220820;28;20015;-72
2023/10/15 06:31:48;;;;;;;;;;;;;;;8.82;67.77;100844.66;4218921;28;20007;-73
2023/10/15 06:33:50;;;;;;;;;;;;;;;8.84;67.47;100849.88;4221041;28;19928;-72
2023/10/15 06:35:53;;;;;;;;;;;;;;;8.77;67.62;100854.22;4220674;28;20007;-73
2023/10/15 06:37:55;;;;;;;;;;;;;;;8.78;68.07;100859.44;4219153;28;20018;-71
2023/10/15 06:39:57;;;;;;;;;;;;;;;8.79;67.71;100855.75;4219826;28;20014;-71
2023/10/15 06:42:00;;;;;;;;;;;;;;;8.73;68.15;100863.63;4219661;28;20051;-71
2023/10/15 06:44:03;;;;;;;;;;;;;;;8.71;68.71;100865.63;4221140;28;20014;-71
2023/10/15 06:46:05;;;;;;;;;;;;;;;8.70;68.91;100875.56;4221497;28;20022;-71
2023/10/15 06:48:09;;;;;;;;;;;;;;;8.76;68.38;100866.84;4217994;28;20038;-71
2023/10/15 06:50:11;;;;;;;;;;;;;;;8.77;68.39;100865.81;4218619;28;20018;-72
2023/10/15 06:52:13;;;;;;;;;;;;;;;8.80;68.46;100878.13;4220174;28;20059;-71
2023/10/15 06:54:16;;;;;;;;;;;;;;;8.82;68.66;100873.41;4220318;28;19970;-72
2023/10/15 06:56:19;;;;;;;;;;;;;;;8.82;68.67;100870.72;4220952;28;20019;-70
2023/10/15 06:58:22;;;;;;;;;;;;;;;8.79;69.07;100888.06;4218807;28;20018;-72
2023/10/15 07:00:23;;;;;;;;;;;;;;;8.80;68.78;100873.59;4218878;27;20043;-71
2023/10/15 07:02:28;;;;;;;;;;;;;;;8.84;68.77;100866.88;4218931;28;19927;-71
2023/10/15 07:04:32;;;;;;;;;;;;;;;8.87;68.90;100870.25;4234192;27;20031;-71
2023/10/15 07:06:34;;;;;;;;;;;;;;;8.90;69.00;100876.13;4219768;28;20011;-70
2023/10/15 07:08:37;;;;;;;;;;;;;;;8.95;68.52;100864.88;4219317;28;20459;-71
2023/10/15 07:10:39;;;;;;;;;;;;;;;8.95;68.68;100871.13;4218227;28;20078;-70
2023/10/15 07:12:40;;;;;;;;;;;;;;;8.99;68.44;100872.47;4218658;28;20010;-73
2023/10/15 07:14:45;;;;;;;;;;;;;;;9.00;68.14;100887.63;4219869;28;19962;-71
2023/10/15 07:16:49;;;;;;;;;;;;;;;9.03;68.31;100875.69;4218902;28;20050;-71
2023/10/15 07:18:51;;;;;;;;;;;;;;;9.05;68.59;100884.44;4218374;28;20026;-72
2023/10/15 07:20:53;;;;;;;;;;;;;;;9.10;68.38;100889.34;4218539;28;20046;-72
2023/10/15 07:22:56;;;;;;;;;;;;;;;9.13;68.35;100886.31;4219439;28;20023;-72
2023/10/15 07:24:58;;;;;;;;;;;;;;;9.19;67.90;100882.97;4219209;28;20684;-71
2023/10/15 07:27:01;;;;;;;;;;;;;;;9.19;68.08;100875.72;4218038;28;20035;-72
2023/10/15 07:29:02;;;;;;;;;;;;;;;9.24;68.26;100891.41;4217263;28;20046;-70
2023/10/15 07:31:07;;;;;;;;;;;;;;;9.27;67.66;100896.47;4217042;28;19955;-73
2023/10/15 07:33:10;;;;;;;;;;;;;;;9.33;67.68;100892.28;4217706;28;20030;-74
2023/10/15 07:35:12;;;;;;;;;;;;;;;9.36;67.64;100898.19;4219157;28;20415;-72
2023/10/15 07:37:14;;;;;;;;;;;;;;;9.40;67.75;100903.25;4215852;28;20828;-71
2023/10/15 07:39:17;;;;;;;;;;;;;;;9.38;67.44;100895.31;4217207;28;20042;-71
2023/10/15 07:41:19;;;;;;;;;;;;;;;9.44;67.49;100905.44;4216257;28;20031;-71
2023/10/15 07:43:21;;;;;;;;;;;;;;;9.47;67.11;100902.41;4215553;28;20030;-70
2023/10/15 07:45:26;;;;;;;;;;;;;;;9.47;66.87;100905.09;4218655;28;20015;-71
2023/10/15 07:47:37;;;;;;;;;;;;;;;9.51;66.70;100897.53;4216152;28;20023;-71
2023/10/15 07:49:40;;;;;;;;;;;;;;;9.52;66.35;100896.53;4215309;28;20340;-71
2023/10/15 07:51:42;;;;;;;;;;;;;;;9.54;66.03;100907.97;4213730;28;20360;-71
2023/10/15 07:53:45;;;;;;;;;;;;;;;9.59;65.94;100919.09;4215715;28;20031;-71
2023/10/15 07:55:49;;;;;;;;;;;;;;;9.62;65.78;100905.28;4215878;28;20011;-71
2023/10/15 07:57:50;;;;;;;;;;;;;;;9.65;65.65;100907.66;4216650;28;20030;-71
2023/10/15 07:59:54;;;;;;;;;;;;;;;9.69;65.67;100908.19;4216567;28;20032;-73
2023/10/15 08:01:56;;;;;;;;;;;;;;;9.73;65.65;100904.97;4216781;28;20015;-71
2023/10/15 08:04:00;;;;;;;;;;;;;;;9.77;65.58;100904.66;4219463;28;20014;-70
2023/10/15 08:06:02;;;;;;;;;;;;;;;9.80;66.12;100909.72;4200919;28;20039;-69
2023/10/15 08:08:05;;;;;;;;;;;;;;;9.85;65.63;100913.56;4218927;28;20014;-70
2023/10/15 08:10:07;;;;;;;;;;;;;;;9.91;65.38;100923.69;4219229;28;20011;-71
2023/10/15 08:12:08;;;;;;;;;;;;;;;9.96;64.78;100909.69;4218945;28;20034;-72
2023/10/15 08:14:10;;;;;;;;;;;;;;;10.02;65.37;100911.72;4219978;28;20052;-70
2023/10/15 08:16:12;;;;;;;;;;;;;;;10.09;65.02;100917.28;4218735;28;20018;-69
2023/10/15 08:18:14;;;;;;;;;;;;;;;10.17;65.23;100917.28;4219627;28;20007;-70
2023/10/15 08:20:18;;;;;;;;;;;;;;;10.25;64.97;100928.06;4201582;28;19966;-70
2023/10/15 08:22:20;;;;;;;;;;;;;;;10.32;64.32;100924.69;4220042;28;20019;-70
2023/10/15 08:24:23;;;;;;;;;;;;;;;10.37;63.30;100919.66;4218988;28;20427;-71
2023/10/15 08:26:25;;;;;;;;;;;;;;;10.43;63.54;100941.41;4220079;28;20019;-69
2023/10/15 08:28:27;;;;;;;;;;;;;;;10.50;63.56;100929.91;4220446;28;19924;-69
2023/10/15 08:30:31;;;;;;;;;;;;;;;10.50;62.92;100928.06;4217569;28;19936;-73
2023/10/15 08:32:33;;;;;;;;;;;;;;;10.55;62.60;100933.78;4219609;28;20027;-71
2023/10/15 08:34:35;;;;;;;;;;;;;;;10.60;62.89;100930.56;4221731;28;20022;-69
2023/10/15 08:36:39;;;;;;;;;;;;;;;10.61;62.51;100925.00;4222178;28;20014;-70
2023/10/15 08:38:45;;;;;;;;;;;;;;;10.63;61.86;100930.22;4222451;28;20019;-71
2023/10/15 08:40:48;;;;;;;;;;;;;;;10.69;62.41;100936.78;4222069;28;20022;-69
2023/10/15 08:42:51;;;;;;;;;;;;;;;10.71;62.15;100935.59;4222853;28;20026;-70
2023/10/15 08:44:53;;;;;;;;;;;;;;;10.72;61.82;100931.03;4223657;28;20354;-69
2023/10/15 08:46:56;;;;;;;;;;;;;;;10.72;61.21;100931.91;4222706;28;19955;-70
2023/10/15 08:48:58;;;;;;;;;;;;;;;10.74;61.02;100926.31;4221901;28;20025;-71
2023/10/15 08:51:00;;;;;;;;;;;;;;;10.71;61.36;100938.31;4223580;28;20022;-71
2023/10/15 08:53:04;;;;;;;;;;;;;;;10.73;60.95;100955.19;4222392;28;20023;-70
2023/10/15 08:55:08;;;;;;;;;;;;;;;10.75;60.74;100947.75;4222479;28;20024;-69
2023/10/15 08:57:11;;;;;;;;;;;;;;;10.77;61.12;100936.78;4223129;28;20465;-69
2023/10/15 08:59:13;;;;;;;;;;;;;;;10.78;60.89;100941.16;4223449;28;20026;-69
2023/10/15 09:01:15;;;;;;;;;;;;;;;10.75;61.13;100938.78;4222064;28;20365;-69
2023/10/15 09:03:17;;;;;;;;;;;;;;;10.75;60.87;100942.38;4222645;28;20437;-70
2023/10/15 09:05:18;;;;;;;;;;;;;;;10.76;61.03;100944.03;4223311;28;20022;-69
2023/10/15 09:07:20;;;;;;;;;;;;;;;10.77;61.22;100940.31;4222599;28;20043;-70
2023/10/15 09:09:24;;;;;;;;;;;;;;;10.79;61.20;100935.56;4221818;27;20020;-73
2023/10/15 09:11:27;;;;;;;;;;;;;;;10.81;61.19;100943.50;4222210;28;20011;-71
2023/10/15 09:13:36;;;;;;;;;;;;;;;10.82;60.68;100939.81;4221675;27;20030;-70
2023/10/15 09:15:38;;;;;;;;;;;;;;;10.84;60.43;100943.16;4221647;28;19963;-70
2023/10/15 09:17:40;;;;;;;;;;;;;;;10.82;60.25;100946.03;4222894;28;19988;-70
2023/10/15 09:19:44;;;;;;;;;;;;;;;10.88;60.42;100946.34;4222320;28;20030;-70
2023/10/15 09:21:46;;;;;;;;;;;;;;;10.89;60.41;100951.56;4222961;28;20018;-70
2023/10/15 09:23:48;;;;;;;;;;;;;;;10.91;60.11;100946.88;4222130;28;20018;-70
2023/10/15 09:25:55;;;;;;;;;;;;;;;10.91;60.39;100956.81;4221977;28;20374;-70
2023/10/15 09:27:57;;;;;;;;;;;;;;;10.91;60.69;100951.41;4221737;28;20022;-72
2023/10/15 09:30:10;;;;;;;;;;;;;;;10.97;60.41;100956.13;4220581;28;20014;-70
2023/10/15 09:32:13;;;;;;;;;;;;;;;10.98;60.25;100964.06;4221804;28;20598;-70
2023/10/15 09:34:15;;;;;;;;;;;;;;;11.04;60.42;100972.50;4221674;28;20360;-70
2023/10/15 09:36:18;;;;;;;;;;;;;;;11.05;59.76;100968.75;4221455;28;20026;-72
2023/10/15 09:38:20;;;;;;;;;;;;;;;11.06;59.89;100960.47;4221533;28;19935;-71
2023/10/15 09:40:23;;;;;;;;;;;;;;;11.05;59.22;100968.75;4221635;28;20020;-70
2023/10/15 09:42:33;;;;;;;;;;;;;;;11.04;58.92;100973.34;4222721;28;20027;-70
2023/10/15 09:44:35;;;;;;;;;;;;;;;11.07;59.22;100982.97;4219461;28;20019;-70
2023/10/15 09:46:37;;;;;;;;;;;;;;;11.09;59.14;100981.75;4221076;28;20022;-72
2023/10/15 09:48:39;;;;;;;;;;;;;;;11.05;58.92;100980.44;4220577;28;20023;-70
2023/10/15 09:50:41;;;;;;;;;;;;;;;11.07;58.92;100993.78;4221691;28;20030;-70
2023/10/15 09:52:43;;;;;;;;;;;;;;;11.07;59.05;100996.47;4220293;28;20778;-70
2023/10/15 09:54:45;;;;;;;;;;;;;;;11.08;59.08;100992.75;4221724;28;20449;-70
2023/10/15 09:56:47;;;;;;;;;;;;;;;11.09;58.85;100994.44;4221107;28;20027;-71
2023/10/15 09:58:51;;;;;;;;;;;;;;;11.08;58.63;100984.63;4222265;28;19928;-70
2023/10/15 10:01:06;;;;;;;;;;;;;;;11.07;58.78;100989.19;4221531;28;20022;-70
2023/10/15 10:03:10;;;;;;;;;;;;;;;11.07;59.14;100993.78;4220099;28;20031;-70
2023/10/15 10:05:17;;;;;;;;;;;;;;;11.09;59.54;100997.13;4221751;28;20023;-72
2023/10/15 10:07:48;;;;;;;;;;;;;;;11.09;59.10;100997.97;4221193;28;20014;-71
2023/10/15 10:10:10;;;;;;;;;;;;;;;11.11;59.11;100990.56;4221899;28;19963;-70
2023/10/15 10:12:16;;;;;;;;;;;;;;;11.10;59.16;100988.84;4221262;28;19968;-69
2023/10/15 10:14:35;;;;;;;;;;;;;;;11.12;59.58;100984.09;4220610;28;20026;-70
2023/10/15 10:16:38;;;;;;;;;;;;;;;11.16;59.42;100990.03;4221381;28;20454;-70
2023/10/15 10:18:39;;;;;;;;;;;;;;;11.22;59.55;100989.28;4221272;28;20026;-71
2023/10/15 10:20:41;;;;;;;;;;;;;;;11.27;59.96;100988.78;4220034;28;19939;-72
2023/10/15 10:22:43;;;;;;;;;;;;;;;11.31;60.02;100992.81;4221582;28;20038;-71
2023/10/15 10:24:47;;;;;;;;;;;;;;;11.34;59.22;101000.59;4220688;28;20638;-71
2023/10/15 10:26:52;;;;;;;;;;;;;;;11.38;59.00;100995.66;4221203;28;20031;-71
2023/10/15 10:28:56;;;;;;;;;;;;;;;11.41;58.22;101027.75;4221585;28;20035;-71
2023/10/15 10:31:00;;;;;;;;;;;;;;;11.40;57.75;100999.06;4220571;28;20015;-70
2023/10/15 10:33:03;;;;;;;;;;;;;;;11.42;57.62;100997.00;4203498;28;20027;-70
2023/10/15 10:35:14;;;;;;;;;;;;;;;11.46;58.18;100999.19;4220625;28;20034;-70
2023/10/15 10:37:20;;;;;;;;;;;;;;;11.48;57.63;100990.91;4220571;28;20860;-70
2023/10/15 10:39:22;;;;;;;;;;;;;;;11.52;58.44;101003.88;4220506;28;20030;-71
2023/10/15 10:41:32;;;;;;;;;;;;;;;11.52;58.01;100990.38;4220728;28;20014;-70